Ville De Bordeaux — FZCE — position and weather

sailwx.info

Track history (hours):
 
Tides and Currents Weather Stations Pressure Air Temp Water Temp Dewpoint Dewpoint Depression Visibility Wind Speed Wind Dir Waves Ship Positions

Ville De Bordeaux

Last reported at 2014-Oct-22 20:33 UTC. Time now 2014-Oct-22 21:50 UTC.
Position N 38°53' E 009°22'.

Length 150 m; beam 24 m.

Type: Ship. MMSI: 228084000.

Date/timePositionNaut miles runAvg speedWind from/ knotsBaromVisibWave heightAir tempDewpointWater temp
2014-Oct-22 20:33N 38°53' E 009°22'1515.0
2014-Oct-22 19:33N 38°47' E 009°04'1414.5
2014-Oct-22 18:33N 38°41' E 008°48'35913.8
2014-Oct-21 16:25N 37°10' E 001°27'1010.6
2014-Oct-21 15:29N 37°08' E 001°15'2611.0
2014-Oct-21 13:09N 37°01' E 000°44'810.7
2014-Oct-21 12:26N 36°59' E 000°35'1310.7
2014-Oct-21 11:14N 36°55' E 000°19'810.7
2014-Oct-21 10:28N 36°53' E 000°09'27312.5
2014-Oct-20 12:33N 35°58' W 005°23'18214.0
2014-Oct-19 23:34N 36°30' W 009°05'1414.5
2014-Oct-19 22:34N 36°37' W 009°22'  
Track history (hours):
 
Tides and Currents Weather Stations Pressure Air Temp Water Temp Dewpoint Dewpoint Depression Visibility Wind Speed Wind Dir Waves Ship Positions

Ville De Bordeaux

Last reported at 2014-Oct-22 20:33 UTC. Time now 2014-Oct-22 21:50 UTC.
Position N 38°53' E 009°22'.

Length 150 m; beam 24 m.

Type: Ship. MMSI: 228084000.

Date/timePositionNaut miles runAvg speedWind from/ knotsBaromVisibWave heightAir tempDewpointWater temp
2014-Oct-22 20:33N 38°53' E 009°22'1515.0
2014-Oct-22 19:33N 38°47' E 009°04'1414.5
2014-Oct-22 18:33N 38°41' E 008°48'35913.8
2014-Oct-21 16:25N 37°10' E 001°27'1010.6
2014-Oct-21 15:29N 37°08' E 001°15'2611.0
2014-Oct-21 13:09N 37°01' E 000°44'810.7
2014-Oct-21 12:26N 36°59' E 000°35'1310.7
2014-Oct-21 11:14N 36°55' E 000°19'810.7
2014-Oct-21 10:28N 36°53' E 000°09'27312.5
2014-Oct-20 12:33N 35°58' W 005°23'18214.0
2014-Oct-19 23:34N 36°30' W 009°05'1414.5
2014-Oct-19 22:34N 36°37' W 009°22'  

Dump ship's entire track history